Time;durP1;ratioP1;P1;durP2;ratioP2;P2;SDS_P1;SDS_P2;PMS_P1;PMS_P2;Temp;Humidity;BMP_temperature;BMP_pressure;BME280_temperature;BME280_humidity;BME280_pressure;Samples;Min_cycle;Max_cycle;Signal;HPM_P1;HPM_P2
2022/12/08 00:01:20;;;;;;;49.40;28.37;;;;;;;7.64;100.00;99359.69;5109694;28;20190;-57
2022/12/08 00:03:48;;;;;;;50.27;29.13;;;;;;;7.70;100.00;99361.28;5109738;28;20210;-57
2022/12/08 00:09:22;;;;;;;51.00;28.23;;;;;;;7.61;100.00;99366.63;5109581;28;20197;-57
2022/12/08 00:11:53;;;;;;;50.07;27.83;;;;;;;7.57;100.00;99364.97;5109639;28;20241;-57
2022/12/08 00:14:22;;;;;;;53.17;27.60;;;;;;;7.71;100.00;99370.72;5109650;28;20198;-57
2022/12/08 00:16:50;;;;;;;51.07;27.43;;;;;;;7.60;100.00;99383.84;5109970;28;20191;-57
2022/12/08 00:19:16;;;;;;;50.83;29.20;;;;;;;7.68;100.00;99383.69;5109520;28;20658;-57
2022/12/08 00:21:43;;;;;;;47.73;26.70;;;;;;;7.65;100.00;99379.47;5109224;28;20230;-57
2022/12/08 00:24:12;;;;;;;48.77;27.10;;;;;;;7.68;100.00;99381.13;5109603;28;20597;-57
2022/12/08 00:26:39;;;;;;;54.60;26.93;;;;;;;7.74;100.00;99385.31;5109514;28;20195;-57
2022/12/08 00:29:06;;;;;;;51.83;26.80;;;;;;;7.71;100.00;99375.03;5109405;28;20234;-61
2022/12/08 00:31:32;;;;;;;47.73;27.13;;;;;;;7.69;100.00;99387.13;5109171;28;20219;-61
2022/12/08 00:33:59;;;;;;;48.73;27.43;;;;;;;7.76;100.00;99393.91;5109289;28;20690;-62
2022/12/08 00:36:27;;;;;;;44.57;25.57;;;;;;;7.76;100.00;99383.56;5109450;28;20693;-62
2022/12/08 00:38:53;;;;;;;44.03;25.53;;;;;;;7.86;100.00;99387.66;5112520;28;20190;-62
2022/12/08 00:44:05;;;;;;;43.53;25.53;;;;;;;7.98;100.00;99385.69;5112867;28;20204;-62
2022/12/08 00:46:32;;;;;;;41.57;25.53;;;;;;;7.97;100.00;99383.13;5113161;27;20608;-62
2022/12/08 00:48:59;;;;;;;44.20;24.87;;;;;;;7.97;100.00;99386.56;5113171;28;20221;-62
2022/12/08 00:51:26;;;;;;;45.30;24.37;;;;;;;7.97;100.00;99384.00;5113118;28;20227;-62
2022/12/08 00:53:52;;;;;;;50.83;25.97;;;;;;;7.91;100.00;99384.09;5112903;28;20195;-61
2022/12/08 00:56:19;;;;;;;48.53;26.30;;;;;;;8.03;100.00;99376.09;5112921;28;20198;-62
2022/12/08 00:58:48;;;;;;;44.03;25.77;;;;;;;7.93;100.00;99379.75;5113190;28;20246;-62
2022/12/08 01:01:15;;;;;;;45.63;26.50;;;;;;;7.89;100.00;99379.88;5113082;28;20205;-61
2022/12/08 01:03:43;;;;;;;46.13;26.07;;;;;;;7.84;100.00;99358.41;5112481;27;20195;-57
2022/12/08 01:06:10;;;;;;;46.97;25.73;;;;;;;7.93;100.00;99377.16;5112531;28;20187;-57
2022/12/08 01:08:37;;;;;;;45.00;25.03;;;;;;;7.94;100.00;99378.03;5112480;28;20194;-62
2022/12/08 01:11:05;;;;;;;44.23;25.30;;;;;;;7.98;100.00;99374.50;5112599;28;20723;-63
2022/12/08 01:13:32;;;;;;;45.70;25.07;;;;;;;8.09;100.00;99387.19;5112321;28;20197;-62
2022/12/08 01:16:00;;;;;;;50.73;26.07;;;;;;;8.11;100.00;99377.69;5112266;28;20195;-62
2022/12/08 01:18:27;;;;;;;45.97;24.93;;;;;;;8.06;100.00;99382.09;5112620;28;20574;-57
2022/12/08 01:20:55;;;;;;;41.60;24.20;;;;;;;8.00;100.00;99385.66;5112517;28;20710;-57
2022/12/08 01:23:22;;;;;;;45.77;25.80;;;;;;;8.01;100.00;99379.63;5112622;28;20655;-62
2022/12/08 01:25:49;;;;;;;51.53;26.70;;;;;;;7.95;100.00;99384.91;5112111;28;20213;-62
2022/12/08 01:28:15;;;;;;;46.10;25.33;;;;;;;7.89;100.00;99379.88;5112178;28;20313;-62
2022/12/08 01:30:42;;;;;;;42.83;24.50;;;;;;;7.90;100.00;99379.81;5111990;28;20197;-57
2022/12/08 01:33:11;;;;;;;50.00;24.20;;;;;;;7.98;100.00;99390.88;5112143;28;20195;-57
2022/12/08 01:35:39;;;;;;;48.73;24.13;;;;;;;8.05;100.00;99393.31;5111897;28;20281;-58
2022/12/08 01:38:06;;;;;;;43.20;23.43;;;;;;;8.03;100.00;99373.50;5112154;28;20643;-57
2022/12/08 01:40:33;;;;;;;42.57;23.67;;;;;;;7.92;100.00;99388.38;5111869;28;20674;-58
2022/12/08 01:43:00;;;;;;;44.77;24.30;;;;;;;7.93;100.00;99397.00;5111960;28;20226;-57
2022/12/08 01:45:28;;;;;;;41.13;24.20;;;;;;;8.05;100.00;99393.31;5111973;28;20202;-56
2022/12/08 01:47:59;;;;;;;42.03;23.60;;;;;;;7.94;100.00;99376.28;5111999;28;20198;-56
2022/12/08 01:50:28;;;;;;;45.83;24.40;;;;;;;8.00;100.00;99383.09;5111316;28;20209;-57
2022/12/08 01:52:59;;;;;;;47.27;23.73;;;;;;;7.95;100.00;99371.97;5112333;28;20218;-57
2022/12/08 01:55:31;;;;;;;40.43;23.97;;;;;;;7.98;100.00;99383.09;5111861;28;20206;-56
2022/12/08 01:58:03;;;;;;;43.10;23.47;;;;;;;7.98;100.00;99384.84;5111986;27;20195;-57
2022/12/08 02:00:30;;;;;;;41.53;24.50;;;;;;;7.86;100.00;99378.19;5111526;28;20222;-57
2022/12/08 02:02:59;;;;;;;46.80;23.60;;;;;;;7.84;100.00;99377.34;5111595;27;20201;-56
2022/12/08 02:05:28;;;;;;;43.50;22.80;;;;;;;7.87;100.00;99382.47;5111491;28;20198;-56
2022/12/08 02:07:57;;;;;;;43.27;23.53;;;;;;;7.88;100.00;99375.56;5111299;28;20209;-57
2022/12/08 02:10:28;;;;;;;40.57;22.97;;;;;;;7.94;100.00;99381.47;5111215;28;20191;-57
2022/12/08 02:12:58;;;;;;;42.50;23.20;;;;;;;8.00;100.00;99378.75;5111311;28;20254;-57
2022/12/08 02:15:37;;;;;;;40.23;23.47;;;;;;;7.93;100.00;99376.31;5111378;28;20217;-61
2022/12/08 02:18:19;;;;;;;38.90;22.40;;;;;;;7.81;100.00;99363.63;5111018;28;20206;-56
2022/12/08 02:20:56;;;;;;;42.73;23.80;;;;;;;7.75;100.00;99367.22;5110939;28;20237;-62
2022/12/08 02:23:31;;;;;;;39.07;22.53;;;;;;;7.85;100.00;99368.72;5111176;27;20194;-62
2022/12/08 02:26:35;;;;;;;44.03;23.10;;;;;;;7.88;100.00;99373.84;5111210;28;20570;-60
2022/12/08 02:29:27;;;;;;;43.13;23.03;;;;;;;7.84;100.00;99379.09;5111300;28;20198;-60
2022/12/08 02:32:05;;;;;;;40.93;22.10;;;;;;;7.92;100.00;99378.03;5097875;28;20226;-62
2022/12/08 02:34:38;;;;;;;39.87;22.47;;;;;;;7.94;100.00;99378.88;5111014;28;20195;-61
2022/12/08 02:37:11;;;;;;;38.13;21.93;;;;;;;7.94;100.00;99378.88;5111071;28;20203;-56
2022/12/08 02:39:44;;;;;;;38.20;21.90;;;;;;;7.81;100.00;99384.31;5110871;28;20191;-62
2022/12/08 02:42:19;;;;;;;40.37;22.83;;;;;;;7.94;100.00;99384.03;5110901;28;20201;-61
2022/12/08 02:44:52;;;;;;;41.67;22.90;;;;;;;7.95;100.00;99380.56;5110520;28;20194;-62
2022/12/08 02:47:21;;;;;;;37.93;22.33;;;;;;;7.94;100.00;99380.59;5110984;28;20201;-62
2022/12/08 02:49:50;;;;;;;41.43;22.47;;;;;;;7.86;100.00;99382.50;5110577;28;20195;-62
2022/12/08 02:52:39;;;;;;;37.60;21.40;;;;;;;7.76;100.00;99388.72;5097639;28;20225;-61
2022/12/08 02:55:11;;;;;;;40.93;21.40;;;;;;;7.70;100.00;99387.09;5090189;28;20195;-61
2022/12/08 02:57:49;;;;;;;36.00;21.03;;;;;;;7.68;100.00;99386.28;5089905;28;20206;-61
2022/12/08 03:00:18;;;;;;;42.43;21.53;;;;;;;7.70;100.00;99394.84;5089833;28;20286;-62
2022/12/08 03:02:58;;;;;;;41.63;20.23;;;;;;;7.75;100.00;99397.38;5089626;28;20273;-61
2022/12/08 03:05:46;;;;;;;32.93;18.90;;;;;;;7.64;100.00;99395.84;5090075;28;20199;-60
2022/12/08 03:08:20;;;;;;;37.63;19.23;;;;;;;7.63;100.00;99393.28;5090199;28;20562;-61
2022/12/08 03:10:53;;;;;;;36.33;20.20;;;;;;;7.53;100.00;99387.44;5089997;28;20211;-61
2022/12/08 03:13:23;;;;;;;31.33;18.70;;;;;;;7.53;100.00;99386.59;5089978;28;20316;-62
2022/12/08 03:15:52;;;;;;;34.60;19.17;;;;;;;7.52;100.00;99384.88;5089844;28;20586;-57
2022/12/08 03:18:26;;;;;;;37.33;20.10;;;;;;;7.52;100.00;99380.56;5089686;28;20343;-56
2022/12/08 03:20:55;;;;;;;36.00;19.00;;;;;;;7.51;100.00;99378.00;5089483;28;20226;-57
2022/12/08 03:23:23;;;;;;;34.73;20.03;;;;;;;7.54;100.00;99377.97;5090127;28;20579;-62
2022/12/08 03:25:58;;;;;;;38.03;20.17;;;;;;;7.62;100.00;99382.09;5089626;28;20201;-63
2022/12/08 03:28:25;;;;;;;38.17;19.17;;;;;;;7.54;100.00;99373.66;5089680;28;20198;-63
2022/12/08 03:30:55;;;;;;;36.17;21.13;;;;;;;7.55;100.00;99369.34;5089484;28;20218;-63
2022/12/08 03:33:26;;;;;;;33.70;19.37;;;;;;;7.56;100.00;99378.78;5089877;28;20694;-62
2022/12/08 03:35:55;;;;;;;38.67;20.10;;;;;;;7.53;100.00;99381.41;5089514;28;20201;-62
2022/12/08 03:38:23;;;;;;;38.30;19.03;;;;;;;7.51;100.00;99391.78;5089477;28;20199;-62
2022/12/08 03:41:17;;;;;;;37.23;20.83;;;;;;;7.54;100.00;99396.91;5089550;28;20195;-61
2022/12/08 03:43:38;;;;;;;39.40;20.80;;;;;;;7.50;100.00;99392.66;5089103;28;20195;-62
2022/12/08 03:46:05;;;;;;;39.50;21.00;;;;;;;7.45;100.00;99401.38;5089534;28;20191;-56
2022/12/08 03:48:32;;;;;;;36.70;20.73;;;;;;;7.36;100.00;99392.03;5089470;28;20198;-56
2022/12/08 03:51:00;;;;;;;33.73;19.87;;;;;;;7.28;100.00;99386.16;5107259;28;20209;-60
2022/12/08 03:53:27;;;;;;;34.47;19.83;;;;;;;7.22;100.00;99392.28;5109654;28;20321;-57
2022/12/08 03:55:54;;;;;;;35.23;20.53;;;;;;;7.24;100.00;99385.38;5109511;28;20209;-57
2022/12/08 03:58:21;;;;;;;37.87;20.10;;;;;;;7.24;100.00;99397.41;5109706;28;20199;-62
2022/12/08 04:00:48;;;;;;;35.50;20.53;;;;;;;7.30;100.00;99394.75;5109485;28;20245;-61
2022/12/08 04:03:15;;;;;;;40.30;22.60;;;;;;;7.22;100.00;99392.28;5109753;28;20658;-57
2022/12/08 04:05:42;;;;;;;40.17;21.00;;;;;;;7.32;100.00;99386.97;5109442;28;20565;-57
2022/12/08 04:08:10;;;;;;;43.03;20.80;;;;;;;7.37;100.00;99377.41;5109604;28;20205;-57
2022/12/08 04:10:37;;;;;;;41.73;21.07;;;;;;;7.31;100.00;99380.97;5109494;28;20191;-56
2022/12/08 04:13:04;;;;;;;40.90;21.10;;;;;;;7.19;100.00;99384.59;5091819;28;20219;-57
2022/12/08 04:15:31;;;;;;;40.37;20.80;;;;;;;7.32;100.00;99387.84;5093425;28;20723;-57
2022/12/08 04:17:58;;;;;;;37.00;18.93;;;;;;;7.31;100.00;99386.13;5092959;28;20290;-62
2022/12/08 04:20:25;;;;;;;37.33;19.87;;;;;;;7.41;100.00;99398.00;5093088;28;20231;-61
2022/12/08 04:22:51;;;;;;;37.40;19.80;;;;;;;7.49;100.00;99400.41;5092989;28;20286;-61
2022/12/08 04:25:20;;;;;;;34.07;19.57;;;;;;;7.57;100.00;99401.13;5092474;28;20219;-61
2022/12/08 04:27:47;;;;;;;34.03;19.93;;;;;;;7.54;100.00;99399.47;5092530;28;20231;-60
2022/12/08 04:30:14;;;;;;;36.93;20.90;;;;;;;7.65;100.00;99401.84;5092418;28;20229;-61
2022/12/08 04:32:40;;;;;;;43.83;21.57;;;;;;;7.63;100.00;99399.28;5091580;28;20227;-61
2022/12/08 04:35:08;;;;;;;33.90;18.43;;;;;;;7.62;100.00;99407.06;5092802;28;20223;-61
2022/12/08 04:37:35;;;;;;;39.60;19.87;;;;;;;7.69;100.00;99397.47;5107606;28;20698;-61
2022/12/08 04:40:02;;;;;;;40.37;19.63;;;;;;;7.79;100.00;99399.84;5110435;28;20197;-56
2022/12/08 04:42:30;;;;;;;39.10;19.10;;;;;;;7.78;100.00;99397.31;5111390;28;20193;-57
2022/12/08 04:44:57;;;;;;;36.27;19.83;;;;;;;7.79;100.00;99406.78;5107409;28;20207;-57
2022/12/08 04:47:24;;;;;;;36.53;18.73;;;;;;;7.74;100.00;99393.94;5111227;28;20207;-61
2022/12/08 04:49:51;;;;;;;36.43;20.07;;;;;;;7.83;100.00;99392.88;5109492;28;20197;-61
2022/12/08 04:52:18;;;;;;;39.90;19.37;;;;;;;7.89;100.00;99395.38;5111657;28;20218;-57
2022/12/08 04:54:44;;;;;;;33.27;19.80;;;;;;;7.84;100.00;99400.63;5119227;27;20197;-61
2022/12/08 04:57:11;;;;;;;34.67;18.97;;;;;;;7.81;100.00;99392.91;5120180;27;20187;-57
2022/12/08 04:59:40;;;;;;;35.03;19.13;;;;;;;7.75;100.00;99385.31;5122084;27;20190;-58
2022/12/08 05:02:07;;;;;;;39.53;20.17;;;;;;;7.67;100.00;99402.69;5113294;27;20197;-57
2022/12/08 05:04:33;;;;;;;37.13;19.33;;;;;;;7.69;100.00;99411.22;5111661;28;20194;-56
2022/12/08 05:07:00;;;;;;;34.97;19.70;;;;;;;7.76;100.00;99411.97;5112002;28;20213;-57
2022/12/08 05:09:28;;;;;;;35.57;19.63;;;;;;;7.66;100.00;99413.91;5112417;28;20202;-57
2022/12/08 05:11:54;;;;;;;31.70;20.33;;;;;;;7.70;100.00;99419.84;5111751;28;20206;-56
2022/12/08 05:14:21;;;;;;;32.23;19.70;;;;;;;7.83;100.00;99421.31;5111953;28;20693;-56
2022/12/08 05:16:50;;;;;;;41.53;21.20;;;;;;;7.92;100.00;99411.63;5111718;27;20201;-57
2022/12/08 05:19:17;;;;;;;41.20;21.13;;;;;;;7.93;100.00;99404.75;5112580;28;20205;-57
2022/12/08 05:21:45;;;;;;;40.13;20.27;;;;;;;7.81;100.00;99418.75;5112141;28;20239;-60
2022/12/08 05:24:13;;;;;;;35.77;20.10;;;;;;;7.79;100.00;99415.34;5111434;28;20200;-60
2022/12/08 05:26:40;;;;;;;44.23;20.37;;;;;;;7.84;100.00;99423.88;5112364;28;20225;-60
2022/12/08 05:29:06;;;;;;;41.20;20.47;;;;;;;7.91;100.00;99440.94;5110106;28;20199;-56
2022/12/08 05:31:33;;;;;;;36.00;21.20;;;;;;;7.84;100.00;99434.22;5111342;27;20279;-58
2022/12/08 05:34:02;;;;;;;40.17;21.63;;;;;;;7.69;100.00;99428.47;5110999;28;20214;-58
2022/12/08 05:36:29;;;;;;;33.47;19.57;;;;;;;7.63;100.00;99434.59;5112270;28;20678;-57
2022/12/08 05:38:57;;;;;;;47.60;21.10;;;;;;;7.56;100.00;99433.03;5110931;28;20194;-60
2022/12/08 05:41:24;;;;;;;35.50;20.07;;;;;;;7.56;100.00;99436.44;5110513;27;20195;-60
2022/12/08 05:43:51;;;;;;;43.87;19.93;;;;;;;7.69;100.00;99433.63;5109791;28;20226;-57
2022/12/08 05:46:18;;;;;;;38.93;19.57;;;;;;;7.71;100.00;99442.22;5110670;27;20205;-58
2022/12/08 05:48:45;;;;;;;35.47;18.63;;;;;;;7.77;100.00;99442.13;5110691;28;20195;-60
2022/12/08 05:51:18;;;;;;;38.57;19.37;;;;;;;7.76;100.00;99446.44;5110815;28;20200;-61
2022/12/08 05:53:45;;;;;;;42.97;19.93;;;;;;;7.67;100.00;99446.59;5110709;28;20218;-57
2022/12/08 05:56:12;;;;;;;35.77;20.00;;;;;;;7.70;100.00;99450.84;5111183;28;20198;-60
2022/12/08 05:58:39;;;;;;;39.80;20.60;;;;;;;7.78;100.00;99455.00;5110913;28;20199;-57
2022/12/08 06:01:06;;;;;;;39.37;19.83;;;;;;;7.82;100.00;99461.78;5091953;27;20640;-57
2022/12/08 06:03:34;;;;;;;36.73;20.10;;;;;;;7.82;100.00;99463.53;5090026;28;20681;-57
2022/12/08 06:06:01;;;;;;;46.50;21.23;;;;;;;7.79;100.00;99456.69;5089705;28;20225;-60
2022/12/08 06:08:29;;;;;;;44.23;21.17;;;;;;;7.94;100.00;99456.41;5089498;28;20618;-59
2022/12/08 06:10:56;;;;;;;38.17;21.00;;;;;;;7.98;100.00;99468.41;5088611;28;20219;-59
2022/12/08 06:13:23;;;;;;;38.60;21.43;;;;;;;7.99;100.00;99464.94;5094324;28;20231;-59
2022/12/08 06:15:49;;;;;;;42.10;21.43;;;;;;;8.00;100.00;99458.03;5110066;28;20733;-60
2022/12/08 06:18:16;;;;;;;48.80;22.13;;;;;;;8.09;100.00;99455.25;5110245;28;20716;-59
2022/12/08 06:20:43;;;;;;;45.17;20.90;;;;;;;8.18;100.00;99454.22;5109673;28;20256;-60
2022/12/08 06:23:10;;;;;;;52.83;21.77;;;;;;;8.11;100.00;99457.81;5109893;28;20210;-59
2022/12/08 06:25:38;;;;;;;47.03;23.03;;;;;;;8.13;100.00;99456.03;5109029;28;20222;-60
2022/12/08 06:28:06;;;;;;;42.47;22.53;;;;;;;8.10;100.00;99451.81;5109675;28;20252;-60
2022/12/08 06:30:33;;;;;;;38.33;21.13;;;;;;;8.09;100.00;99457.84;5109452;28;20229;-59
2022/12/08 06:33:00;;;;;;;41.37;21.77;;;;;;;8.14;100.00;99463.75;5109073;28;20295;-60
2022/12/08 06:35:27;;;;;;;41.23;22.33;;;;;;;8.17;100.00;99466.28;5108980;28;20271;-60
2022/12/08 06:37:53;;;;;;;40.73;21.10;;;;;;;8.23;100.00;99460.16;5109341;28;20771;-57
2022/12/08 06:40:20;;;;;;;42.80;22.87;;;;;;;8.28;100.00;99466.06;5108709;28;20218;-56
2022/12/08 06:42:49;;;;;;;41.40;22.73;;;;;;;8.36;100.00;99466.78;5109504;28;20218;-60
2022/12/08 06:45:17;;;;;;;46.27;23.00;;;;;;;8.45;100.00;99469.22;5109480;28;20283;-59
2022/12/08 06:47:44;;;;;;;44.37;22.90;;;;;;;8.44;100.00;99466.66;5109229;27;20218;-60
2022/12/08 06:50:13;;;;;;;42.57;22.50;;;;;;;8.52;100.00;99475.94;5109418;28;20215;-60
2022/12/08 06:52:41;;;;;;;41.77;21.87;;;;;;;8.55;100.00;99475.91;5108985;28;20245;-60
2022/12/08 06:55:10;;;;;;;45.30;22.27;;;;;;;8.55;100.00;99481.06;5108389;27;20305;-60
2022/12/08 06:57:37;;;;;;;47.20;24.03;;;;;;;8.53;100.00;99472.47;5109211;28;20647;-59
2022/12/08 07:00:07;;;;;;;40.90;23.53;;;;;;;8.50;100.00;99480.31;5109071;28;20315;-58
2022/12/08 07:02:34;;;;;;;47.77;23.33;;;;;;;8.55;100.00;99475.91;5109028;28;20229;-60
2022/12/08 07:05:01;;;;;;;49.50;25.07;;;;;;;8.63;100.00;99480.91;5109041;27;20310;-60
2022/12/08 07:07:27;;;;;;;48.23;23.20;;;;;;;8.65;100.00;99487.75;5108845;28;20327;-60
2022/12/08 07:09:54;;;;;;;41.60;21.43;;;;;;;8.52;100.00;99486.31;5108539;28;20229;-59
2022/12/08 07:12:21;;;;;;;41.10;21.37;;;;;;;8.50;100.00;99495.81;5107598;28;20709;-60
2022/12/08 07:14:48;;;;;;;45.00;21.63;;;;;;;8.49;100.00;99491.53;5108182;28;20215;-61
2022/12/08 07:17:17;;;;;;;47.53;22.83;;;;;;;8.57;100.00;99489.66;5108124;28;20230;-60
2022/12/08 07:19:43;;;;;;;41.63;21.53;;;;;;;8.58;100.00;99491.34;5107869;28;20240;-61
2022/12/08 07:22:10;;;;;;;46.57;22.00;;;;;;;8.61;100.00;99493.84;5108243;27;20230;-61
2022/12/08 07:24:37;;;;;;;41.57;21.37;;;;;;;8.67;100.00;99505.84;5107995;28;20254;-60
2022/12/08 07:27:04;;;;;;;46.27;22.67;;;;;;;8.58;100.00;99503.41;5108734;27;20215;-61
2022/12/08 07:29:31;;;;;;;38.53;22.20;;;;;;;8.57;100.00;99506.91;5108593;28;20283;-61
2022/12/08 07:31:58;;;;;;;46.07;22.10;;;;;;;8.64;100.00;99511.91;5108459;27;20225;-60
2022/12/08 07:34:26;;;;;;;47.87;24.33;;;;;;;8.58;100.00;99514.63;5108376;28;20618;-61
2022/12/08 07:36:53;;;;;;;43.97;23.17;;;;;;;8.66;100.00;99519.66;5108112;27;20613;-60
2022/12/08 07:39:20;;;;;;;48.50;23.33;;;;;;;8.57;100.00;99520.69;5108004;28;20222;-60
2022/12/08 07:41:47;;;;;;;50.37;23.53;;;;;;;8.68;100.00;99525.66;5108617;28;20710;-59
2022/12/08 07:44:14;;;;;;;46.00;23.17;;;;;;;8.74;100.00;99530.69;5107953;27;20663;-57
2022/12/08 07:46:41;;;;;;;45.50;23.10;;;;;;;8.72;100.00;99533.31;5107409;28;20281;-61
2022/12/08 07:49:08;;;;;;;48.17;23.70;;;;;;;8.75;100.00;99529.81;5108151;28;20194;-57
2022/12/08 07:51:36;;;;;;;48.37;23.87;;;;;;;8.73;100.00;99539.31;5109010;28;20199;-59
2022/12/08 07:54:03;;;;;;;48.93;24.57;;;;;;;8.80;100.00;99534.88;5109465;28;20218;-61
2022/12/08 07:56:30;;;;;;;42.00;23.33;;;;;;;8.89;100.00;99534.69;5109510;28;20206;-60
2022/12/08 07:58:56;;;;;;;51.93;24.17;;;;;;;8.92;100.00;99537.19;5108888;28;20201;-61
2022/12/08 08:01:26;;;;;;;41.93;21.37;;;;;;;8.80;100.00;99543.50;5106471;28;20194;-58
2022/12/08 08:03:54;;;;;;;42.40;22.07;;;;;;;8.74;100.00;99539.28;5109194;28;20202;-58
2022/12/08 08:06:22;;;;;;;41.57;22.97;;;;;;;8.72;100.00;99541.06;5100894;28;20702;-57
2022/12/08 08:08:50;;;;;;;44.83;22.60;;;;;;;8.71;100.00;99535.91;5089441;28;20218;-60
2022/12/08 08:11:17;;;;;;;41.43;23.30;;;;;;;8.67;100.00;99534.28;5089376;28;20272;-60
2022/12/08 08:13:44;;;;;;;43.40;23.97;;;;;;;8.80;100.00;99547.84;5101690;28;20955;-60
2022/12/08 08:16:12;;;;;;;46.67;24.17;;;;;;;8.84;100.00;99552.03;5109800;28;20191;-61
2022/12/08 08:18:39;;;;;;;40.07;23.40;;;;;;;8.78;100.00;99545.28;5110331;28;20202;-61
2022/12/08 08:21:06;;;;;;;43.00;23.07;;;;;;;8.87;100.00;99545.06;5109963;28;20232;-58
2022/12/08 08:23:33;;;;;;;46.83;25.83;;;;;;;8.93;100.00;99547.50;5110269;28;20195;-57
2022/12/08 08:26:03;;;;;;;41.17;23.17;;;;;;;8.91;100.00;99538.97;5110010;28;20214;-58
2022/12/08 08:28:31;;;;;;;43.27;22.20;;;;;;;8.90;100.00;99544.16;5110089;28;20229;-56
2022/12/08 08:30:59;;;;;;;42.47;22.57;;;;;;;8.91;100.00;99551.03;5109778;28;20276;-59
2022/12/08 08:33:26;;;;;;;45.30;25.77;;;;;;;8.89;100.00;99543.31;5110212;28;20237;-60
2022/12/08 08:35:53;;;;;;;46.00;25.37;;;;;;;8.95;100.00;99547.47;5110005;28;20202;-61
2022/12/08 08:38:20;;;;;;;52.50;28.03;;;;;;;8.99;100.00;99539.63;5110079;28;20198;-60
2022/12/08 08:40:47;;;;;;;41.67;24.23;;;;;;;8.88;100.00;99535.56;5110026;28;20190;-58
2022/12/08 08:43:28;;;;;;;48.13;26.70;;;;;;;8.91;100.00;99540.69;5110262;28;20195;-58
2022/12/08 08:45:57;;;;;;;49.17;25.53;;;;;;;9.03;100.00;99536.06;5110028;28;20624;-60
2022/12/08 08:48:24;;;;;;;49.47;24.50;;;;;;;9.04;100.00;99535.19;5110029;28;20203;-60
2022/12/08 08:50:51;;;;;;;49.40;23.63;;;;;;;9.14;100.00;99522.91;5109926;28;20299;-61
2022/12/08 08:53:17;;;;;;;44.37;23.27;;;;;;;9.19;100.00;99518.47;5109780;28;20604;-60
2022/12/08 08:55:44;;;;;;;41.60;23.60;;;;;;;9.16;100.00;99502.13;5110053;28;20198;-60
2022/12/08 08:58:11;;;;;;;51.90;24.13;;;;;;;9.27;100.00;99515.69;5109892;28;21251;-60
2022/12/08 09:00:40;;;;;;;45.53;25.57;;;;;;;9.29;100.00;99519.09;5112600;28;20191;-57
2022/12/08 09:03:07;;;;;;;46.70;24.07;;;;;;;9.44;100.00;99514.41;5113482;28;20256;-58
2022/12/08 09:05:34;;;;;;;61.97;32.87;;;;;;;9.42;100.00;99507.56;5113607;28;20199;-56
2022/12/08 09:08:01;;;;;;;120.10;63.67;;;;;;;9.53;100.00;99504.69;5113346;28;20237;-57
2022/12/08 09:10:28;;;;;;;70.17;36.43;;;;;;;9.55;100.00;99505.53;5113327;28;20294;-59
2022/12/08 09:12:54;;;;;;;61.87;30.73;;;;;;;9.62;100.00;99509.66;5112925;28;20199;-60
2022/12/08 09:15:21;;;;;;;46.97;26.03;;;;;;;9.70;100.00;99502.56;5113334;28;20209;-60
2022/12/08 09:17:50;;;;;;;56.83;27.87;;;;;;;9.65;100.00;99509.59;5113307;28;20194;-60
2022/12/08 09:20:17;;;;;;;64.57;31.80;;;;;;;9.57;100.00;99506.34;5094002;27;20610;-57
2022/12/08 09:22:43;;;;;;;56.23;29.73;;;;;;;9.55;100.00;99510.69;5092183;28;20226;-57
2022/12/08 09:25:10;;;;;;;50.00;27.07;;;;;;;9.61;100.00;99498.44;5092075;28;20229;-63
2022/12/08 09:27:37;;;;;;;44.73;24.87;;;;;;;9.55;100.00;99483.06;5091770;28;20227;-58
2022/12/08 09:30:05;;;;;;;50.03;26.10;;;;;;;9.62;100.00;99496.69;5091836;28;20230;-57
2022/12/08 09:32:32;;;;;;;52.70;27.50;;;;;;;9.70;100.00;99497.38;5090917;28;20241;-58
2022/12/08 09:35:00;;;;;;;55.93;27.57;;;;;;;9.82;100.00;99497.88;5100456;28;20699;-57
2022/12/08 09:37:27;;;;;;;58.57;26.07;;;;;;;9.95;100.00;99490.63;5111452;28;20810;-58
2022/12/08 09:39:54;;;;;;;47.23;27.17;;;;;;;9.91;100.00;99486.44;5112002;28;20205;-58
2022/12/08 09:42:32;;;;;;;48.80;26.30;;;;;;;10.00;100.00;99481.00;5112564;28;20199;-58
2022/12/08 09:45:04;;;;;;;52.13;26.33;;;;;;;10.03;100.00;99485.25;5112682;27;20198;-58
2022/12/08 09:47:37;;;;;;;49.60;25.53;;;;;;;9.95;100.00;99477.66;5112648;28;20576;-58
2022/12/08 09:50:12;;;;;;;50.83;24.80;;;;;;;9.88;100.00;99476.16;5112462;28;20207;-57
2022/12/08 09:52:43;;;;;;;44.50;25.17;;;;;;;9.82;100.00;99490.09;5112766;28;20566;-60
2022/12/08 09:55:19;;;;;;;47.40;25.47;;;;;;;9.78;100.00;99475.53;5112359;28;20222;-59
2022/12/08 09:57:54;;;;;;;47.37;26.30;;;;;;;9.81;100.00;99478.06;5112417;28;20194;-59
2022/12/08 10:00:22;;;;;;;52.47;26.70;;;;;;;9.66;100.00;99478.44;5112339;27;20202;-57
2022/12/08 10:02:49;;;;;;;50.13;26.07;;;;;;;9.71;100.00;99467.94;5112413;28;20201;-57
2022/12/08 10:05:17;;;;;;;49.80;26.07;;;;;;;9.75;100.00;99470.44;5111807;28;20638;-58
2022/12/08 10:07:48;;;;;;;53.27;27.43;;;;;;;9.76;100.00;99460.91;5110558;27;20191;-56
2022/12/08 10:10:28;;;;;;;54.57;27.13;;;;;;;9.60;100.00;99462.19;5110201;28;20194;-57
2022/12/08 10:13:03;;;;;;;51.53;26.20;;;;;;;9.62;100.00;99457.81;5110365;28;20714;-58
2022/12/08 10:15:38;;;;;;;54.23;26.80;;;;;;;9.63;100.00;99457.78;5110643;28;20206;-58
2022/12/08 10:18:12;;;;;;;47.57;26.50;;;;;;;9.63;100.00;99449.16;5110996;28;20201;-57
2022/12/08 10:20:44;;;;;;;54.57;26.43;;;;;;;9.61;100.00;99438.84;5111358;28;20294;-58
2022/12/08 10:23:22;;;;;;;54.80;26.43;;;;;;;9.64;100.00;99436.16;5111675;28;20290;-58
2022/12/08 10:25:51;;;;;;;50.43;25.23;;;;;;;9.74;100.00;99439.38;5111763;28;20201;-58
2022/12/08 10:28:18;;;;;;;50.90;27.37;;;;;;;9.76;100.00;99427.22;5112161;28;20689;-58
2022/12/08 10:30:45;;;;;;;54.67;27.90;;;;;;;9.72;100.00;99443.72;5111523;28;20205;-56
2022/12/08 10:33:15;;;;;;;54.23;27.17;;;;;;;9.73;100.00;99445.44;5110898;28;20198;-58
2022/12/08 10:35:46;;;;;;;57.03;28.87;;;;;;;9.68;100.00;99455.94;5110961;27;20738;-58
2022/12/08 10:38:23;;;;;;;61.50;28.50;;;;;;;9.81;100.00;99452.13;5108719;28;20228;-57
2022/12/08 10:40:52;;;;;;;47.87;26.37;;;;;;;9.91;100.00;99450.16;5108662;28;20194;-58
2022/12/08 10:43:22;;;;;;;53.07;28.33;;;;;;;9.88;100.00;99437.25;5110715;28;20203;-58
2022/12/08 10:45:49;;;;;;;55.23;28.93;;;;;;;9.83;100.00;99437.38;5109208;28;20199;-58
2022/12/08 10:48:19;;;;;;;54.07;28.60;;;;;;;9.75;100.00;99439.31;5108228;28;20608;-58
2022/12/08 10:50:53;;;;;;;49.17;28.30;;;;;;;9.66;100.00;99429.22;5106488;28;20194;-58
2022/12/08 10:53:23;;;;;;;50.63;27.27;;;;;;;9.81;100.00;99423.63;5109574;28;20650;-58
2022/12/08 10:55:52;;;;;;;58.93;29.07;;;;;;;9.91;100.00;99423.38;5108900;28;20581;-58
2022/12/08 10:58:40;;;;;;;59.40;30.23;;;;;;;9.88;100.00;99419.13;5109468;28;20209;-58
2022/12/08 11:01:13;;;;;;;51.20;28.20;;;;;;;9.82;100.00;99425.28;5100377;28;20205;-57
2022/12/08 11:03:46;;;;;;;52.40;28.00;;;;;;;9.75;100.00;99433.28;5107939;28;20195;-57
2022/12/08 11:06:17;;;;;;;49.07;27.87;;;;;;;9.79;100.00;99434.91;5107431;28;20195;-60
2022/12/08 11:08:48;;;;;;;49.77;26.07;;;;;;;9.80;100.00;99426.25;5106276;28;20195;-60
2022/12/08 11:11:16;;;;;;;52.13;27.03;;;;;;;9.81;100.00;99422.78;5108859;28;20213;-61
2022/12/08 11:13:43;;;;;;;62.90;29.77;;;;;;;9.85;100.00;99421.78;5108279;28;20407;-60
2022/12/08 11:16:13;;;;;;;62.90;31.00;;;;;;;9.71;100.00;99421.28;5108579;28;20679;-60
2022/12/08 11:18:42;;;;;;;62.50;32.90;;;;;;;9.76;100.00;99416.84;5107845;28;20205;-57
2022/12/08 11:21:13;;;;;;;62.10;33.30;;;;;;;9.88;100.00;99408.75;5107706;28;20230;-57
2022/12/08 11:23:46;;;;;;;58.83;30.50;;;;;;;9.89;100.00;99400.06;5108080;28;20198;-61
2022/12/08 11:26:20;;;;;;;53.97;29.57;;;;;;;9.93;100.00;99400.84;5107576;28;20202;-58
2022/12/08 11:28:47;;;;;;;56.90;30.87;;;;;;;9.87;100.00;99412.22;5106292;28;20194;-57
2022/12/08 11:31:25;;;;;;;56.20;30.37;;;;;;;9.95;100.00;99399.88;5108058;28;20198;-56